Time;durP1;ratioP1;P1;durP2;ratioP2;P2;SDS_P1;SDS_P2;PMS_P1;PMS_P2;Temp;Humidity;BMP_temperature;BMP_pressure;BME280_temperature;BME280_humidity;BME280_pressure;Samples;Min_cycle;Max_cycle;Signal;HPM_P1;HPM_P2
2022/04/25 00:01:24;;;;;;;14.82;9.38;;;;;;;10.92;76.27;98776.41;5098845;28;20055;-74
2022/04/25 00:03:52;;;;;;;18.35;10.70;;;;;;;10.90;76.58;98769.59;5117009;28;20100;-74
2022/04/25 00:06:19;;;;;;;18.30;10.20;;;;;;;10.92;76.39;98776.41;5116746;28;20417;-73
2022/04/25 00:08:46;;;;;;;19.48;10.77;;;;;;;10.98;75.96;98776.94;5098810;28;20047;-74
2022/04/25 00:11:13;;;;;;;17.23;9.27;;;;;;;10.99;76.24;98773.03;5116626;28;20075;-73
2022/04/25 00:13:40;;;;;;;23.80;12.75;;;;;;;11.02;76.13;98777.88;5116535;28;20240;-75
2022/04/25 00:16:08;;;;;;;17.80;10.50;;;;;;;11.04;75.81;98769.97;5097989;28;20521;-74
2022/04/25 00:18:35;;;;;;;15.25;9.40;;;;;;;11.09;75.81;98778.06;5098720;28;20071;-73
2022/04/25 00:21:02;;;;;;;18.35;9.77;;;;;;;11.07;76.00;98777.59;5081312;28;20449;-62
2022/04/25 00:23:29;;;;;;;16.17;9.55;;;;;;;11.08;75.18;98776.47;5116379;28;20043;-63
2022/04/25 00:25:56;;;;;;;19.30;9.63;;;;;;;11.13;75.02;98767.84;5097813;28;20048;-63
2022/04/25 00:28:23;;;;;;;13.98;8.32;;;;;;;11.12;75.79;98774.59;5116169;28;20162;-63
2022/04/25 00:30:51;;;;;;;14.75;8.27;;;;;;;11.13;75.23;98773.41;5098192;28;20052;-64
2022/04/25 00:33:18;;;;;;;12.93;8.07;;;;;;;11.11;75.56;98770.19;5081286;28;20075;-63
2022/04/25 00:35:45;;;;;;;14.43;7.95;;;;;;;11.09;75.13;98775.28;5116181;28;20104;-64
2022/04/25 00:38:12;;;;;;;14.82;8.40;;;;;;;11.07;75.36;98777.59;5095594;28;20092;-64
2022/04/25 00:40:40;;;;;;;13.95;7.93;;;;;;;11.04;75.54;98770.78;5077663;28;20068;-64
2022/04/25 00:43:07;;;;;;;11.27;6.88;;;;;;;11.06;75.17;98773.22;5095527;28;20048;-73
2022/04/25 00:45:35;;;;;;;10.70;6.32;;;;;;;11.06;75.28;98768.47;5095668;28;20176;-74
2022/04/25 00:48:03;;;;;;;11.85;7.35;;;;;;;11.06;75.29;98767.66;5106508;28;20070;-74
2022/04/25 00:50:31;;;;;;;11.70;6.88;;;;;;;11.04;75.27;98778.31;5116267;28;20062;-74
2022/04/25 00:52:59;;;;;;;12.65;6.85;;;;;;;11.08;75.11;98773.69;5115937;28;20054;-73
2022/04/25 00:55:26;;;;;;;12.32;7.00;;;;;;;11.08;75.36;98765.34;5115951;28;20055;-74
2022/04/25 00:57:56;;;;;;;11.55;7.32;;;;;;;11.09;75.07;98769.72;5115525;28;20088;-74
2022/04/25 01:00:24;;;;;;;;;;;;;;;11.03;75.62;98768.34;5116183;28;20146;-73
2022/04/25 01:02:51;;;;;;;10.30;6.18;;;;;;;11.02;74.88;98773.09;5115781;28;19923;-74
2022/04/25 01:05:18;;;;;;;13.57;8.52;;;;;;;11.01;75.09;98773.47;5115544;28;20055;-65
2022/04/25 01:07:45;;;;;;;14.93;8.13;;;;;;;11.00;75.06;98777.41;5115425;28;20051;-64
2022/04/25 01:10:12;;;;;;;13.10;7.90;;;;;;;10.97;75.44;98778.94;5115800;28;20078;-65
2022/04/25 01:12:39;;;;;;;13.73;8.38;;;;;;;10.96;75.46;98780.09;5115302;28;20055;-64
2022/04/25 01:15:12;;;;;;;13.57;8.35;;;;;;;11.02;75.40;98789.00;5115140;28;20047;-65
2022/04/25 01:17:39;;;;;;;16.35;7.65;;;;;;;11.02;75.42;98783.44;5115524;28;20052;-65
2022/04/25 01:20:08;;;;;;;14.18;7.15;;;;;;;11.03;75.27;98785.06;5097268;28;20058;-68
2022/04/25 01:22:44;;;;;;;12.90;7.80;;;;;;;10.97;75.40;98778.13;5114927;28;20047;-68
2022/04/25 01:27:57;;;;;;;13.23;7.78;;;;;;;10.97;75.12;98781.72;5096432;28;20043;-70
2022/04/25 01:30:24;;;;;;;14.00;7.72;;;;;;;11.00;75.54;98781.03;5115097;28;20512;-68
2022/04/25 01:32:52;;;;;;;12.82;7.68;;;;;;;11.01;74.98;98781.81;5115244;28;20078;-69
2022/04/25 01:35:19;;;;;;;15.25;7.85;;;;;;;11.05;74.63;98775.19;5114957;28;20417;-69
2022/04/25 01:37:46;;;;;;;16.60;8.25;;;;;;;11.08;75.04;98774.47;5114808;28;20052;-69
2022/04/25 01:40:13;;;;;;;13.95;7.90;;;;;;;11.07;75.08;98774.81;5115066;28;20151;-65
2022/04/25 01:42:42;;;;;;;13.27;7.15;;;;;;;11.04;74.92;98764.41;5115219;28;20043;-65
2022/04/25 01:45:09;;;;;;;13.93;8.25;;;;;;;11.04;74.54;98772.75;5114742;28;20409;-65
2022/04/25 01:47:37;;;;;;;12.23;6.97;;;;;;;11.03;74.71;98765.56;5114111;28;20405;-64
2022/04/25 01:50:04;;;;;;;12.77;7.50;;;;;;;11.04;74.51;98765.22;5114645;28;20047;-65
2022/04/25 01:52:34;;;;;;;12.10;7.55;;;;;;;11.06;74.56;98773.22;5114518;28;20091;-64
2022/04/25 01:55:02;;;;;;;14.95;8.30;;;;;;;11.03;74.35;98773.94;5114639;28;20395;-65
2022/04/25 01:57:30;;;;;;;14.38;8.52;;;;;;;10.94;74.76;98770.47;5096308;28;20043;-65
2022/04/25 01:59:57;;;;;;;14.90;8.13;;;;;;;10.81;74.77;98771.69;5114344;28;20051;-64
2022/04/25 02:02:25;;;;;;;11.98;7.15;;;;;;;10.74;75.17;98774.25;5114343;28;20391;-64
2022/04/25 02:04:53;;;;;;;12.43;7.15;;;;;;;10.64;75.14;98771.97;5114032;28;20101;-65
2022/04/25 02:07:20;;;;;;;11.55;7.43;;;;;;;10.57;75.36;98771.78;5114032;28;20418;-65
2022/04/25 02:09:47;;;;;;;13.60;7.88;;;;;;;10.53;75.85;98771.66;5114031;28;20077;-65
2022/04/25 02:12:15;;;;;;;12.20;7.78;;;;;;;10.54;75.06;98775.25;5114217;28;20134;-64
2022/04/25 02:14:43;;;;;;;12.32;7.28;;;;;;;10.57;74.59;98771.78;5114164;28;20049;-66
2022/04/25 02:17:10;;;;;;;12.70;7.28;;;;;;;10.57;74.44;98771.78;5114125;28;20097;-65
2022/04/25 02:19:40;;;;;;;15.73;7.68;;;;;;;10.61;75.09;98772.69;5113739;28;20138;-65
2022/04/25 02:22:09;;;;;;;12.55;6.95;;;;;;;10.62;74.92;98769.53;5113858;28;20131;-66
2022/04/25 02:24:38;;;;;;;14.95;7.80;;;;;;;10.66;74.08;98778.78;5113752;28;20047;-65
2022/04/25 02:27:06;;;;;;;15.20;7.28;;;;;;;10.64;74.59;98772.78;5114191;28;20051;-64
2022/04/25 02:29:37;;;;;;;15.27;7.65;;;;;;;10.69;73.94;98791.22;5113547;28;20035;-65
2022/04/25 02:32:04;;;;;;;11.52;7.55;;;;;;;10.70;74.33;98787.25;5113927;28;20422;-64
2022/04/25 02:34:31;;;;;;;12.13;7.03;;;;;;;10.71;74.29;98789.69;5113759;28;20056;-65
2022/04/25 02:37:00;;;;;;;13.30;7.78;;;;;;;10.73;74.20;98786.56;5113805;28;20055;-65
2022/04/25 02:39:27;;;;;;;10.90;6.90;;;;;;;10.73;74.17;98786.56;5113747;28;20087;-65
2022/04/25 02:41:54;;;;;;;11.88;7.18;;;;;;;10.74;73.65;98782.59;5113777;28;20039;-65
2022/04/25 02:44:21;;;;;;;10.95;6.45;;;;;;;10.73;73.82;98792.94;5113373;28;20142;-65
2022/04/25 02:46:48;;;;;;;13.40;6.78;;;;;;;10.75;74.38;98792.59;5113338;28;20078;-65
2022/04/25 02:49:15;;;;;;;11.32;6.85;;;;;;;10.76;73.83;98796.97;5113044;28;20062;-65
2022/04/25 02:51:44;;;;;;;13.15;7.32;;;;;;;10.78;73.84;98789.09;5113804;28;20051;-66
2022/04/25 02:54:11;;;;;;;16.52;6.78;;;;;;;10.80;74.10;98793.13;5113451;28;20043;-65
2022/04/25 02:56:38;;;;;;;11.63;6.35;;;;;;;10.85;73.37;98801.25;5113859;28;20058;-64
2022/04/25 02:59:06;;;;;;;11.95;5.55;;;;;;;10.88;74.09;98803.31;5113271;28;20043;-64
2022/04/25 03:01:34;;;;;;;10.73;6.22;;;;;;;10.94;73.81;98798.31;5113463;28;20474;-67
2022/04/25 03:04:02;;;;;;;9.50;5.10;;;;;;;10.99;73.47;98796.06;5113048;28;20043;-65
2022/04/25 03:06:29;;;;;;;10.13;5.70;;;;;;;11.00;72.86;98797.72;5113405;28;20059;-65
2022/04/25 03:08:56;;;;;;;10.10;5.93;;;;;;;11.03;72.79;98805.34;5113158;28;20075;-64
2022/04/25 03:11:24;;;;;;;8.27;5.63;;;;;;;11.01;72.67;98801.28;5112571;28;20402;-65
2022/04/25 03:13:52;;;;;;;10.35;5.88;;;;;;;10.96;73.26;98798.78;5113101;28;20052;-63
2022/04/25 03:16:20;;;;;;;11.82;6.15;;;;;;;10.98;72.29;98797.25;5113291;28;20406;-63
2022/04/25 03:18:48;;;;;;;12.38;4.90;;;;;;;10.96;72.61;98809.91;5113000;28;20039;-63
2022/04/25 03:21:15;;;;;;;9.07;5.07;;;;;;;10.88;72.38;98805.28;5112892;28;20094;-64
2022/04/25 03:23:42;;;;;;;10.50;5.18;;;;;;;10.87;72.46;98806.47;5113033;28;20453;-64
2022/04/25 03:26:09;;;;;;;10.30;5.57;;;;;;;10.91;72.55;98799.00;5094652;28;20048;-63
2022/04/25 03:28:36;;;;;;;16.65;6.28;;;;;;;11.08;72.25;98801.50;5112917;28;20083;-74
2022/04/25 03:31:06;;;;;;;8.48;5.13;;;;;;;11.36;71.10;98812.63;5112928;28;20069;-74
2022/04/25 03:33:37;;;;;;;9.52;5.40;;;;;;;11.51;70.41;98806.28;5113121;28;20571;-73
2022/04/25 03:36:04;;;;;;;8.30;4.82;;;;;;;11.54;70.55;98800.81;5113130;28;20039;-75
2022/04/25 03:38:31;;;;;;;8.35;4.75;;;;;;;11.51;70.68;98798.75;5112757;28;20108;-74
2022/04/25 03:40:59;;;;;;;7.65;5.30;;;;;;;11.44;71.05;98794.94;5113044;28;20594;-75
2022/04/25 03:43:27;;;;;;;7.60;4.82;;;;;;;11.44;70.46;98793.00;5112582;28;20093;-72
2022/04/25 03:45:55;;;;;;;9.65;5.80;;;;;;;11.50;70.19;98799.09;5113069;28;20051;-65
2022/04/25 03:48:22;;;;;;;9.23;5.30;;;;;;;11.61;70.19;98801.03;5112405;28;20452;-65
2022/04/25 03:50:49;;;;;;;12.30;5.40;;;;;;;11.71;70.03;98797.72;5112868;28;20079;-64
2022/04/25 03:53:16;;;;;;;12.48;5.00;;;;;;;11.87;69.63;98792.97;5112798;28;20069;-65
2022/04/25 03:58:31;;;;;;;10.57;4.65;;;;;;;11.89;68.93;98793.44;5112604;28;20048;-65
2022/04/25 04:00:58;;;;;;;8.95;5.60;;;;;;;11.96;68.55;98790.81;5094313;28;20056;-65
2022/04/25 04:03:25;;;;;;;11.32;5.35;;;;;;;12.00;68.33;98794.50;5112477;28;20063;-66
2022/04/25 04:05:54;;;;;;;10.20;5.25;;;;;;;12.05;67.96;98788.66;5112835;28;20097;-67
2022/04/25 04:08:21;;;;;;;8.57;5.43;;;;;;;12.09;67.79;98778.41;5112471;28;20040;-65
2022/04/25 04:10:48;;;;;;;10.93;6.15;;;;;;;12.25;66.98;98776.41;5112727;28;20084;-65
2022/04/25 04:13:15;;;;;;;7.45;4.93;;;;;;;12.31;66.99;98777.75;5112537;28;20433;-66
2022/04/25 04:15:42;;;;;;;8.13;5.20;;;;;;;12.33;66.94;98778.19;5112735;28;20585;-66
2022/04/25 04:18:09;;;;;;;10.75;5.97;;;;;;;12.39;66.67;98770.34;5112673;28;20152;-65
2022/04/25 04:20:37;;;;;;;11.70;6.10;;;;;;;12.60;65.98;98768.03;5112906;28;20101;-66
2022/04/25 04:23:05;;;;;;;9.95;5.43;;;;;;;12.84;65.39;98776.16;5116401;28;20078;-66
2022/04/25 04:25:33;;;;;;;10.15;6.05;;;;;;;12.98;64.81;98770.88;5115922;28;20057;-65
2022/04/25 04:28:00;;;;;;;10.43;5.22;;;;;;;13.05;64.66;98773.06;5116085;28;20448;-65
2022/04/25 04:30:27;;;;;;;9.43;5.53;;;;;;;13.13;64.60;98772.00;5098117;28;20063;-65
2022/04/25 04:32:54;;;;;;;8.70;5.72;;;;;;;13.23;64.25;98779.81;5116276;28;20597;-65
2022/04/25 04:38:07;;;;;;;7.82;5.07;;;;;;;12.83;64.22;98772.56;5095495;28;20048;-65
2022/04/25 04:40:35;;;;;;;10.68;5.28;;;;;;;12.77;63.87;98774.00;5096099;28;20091;-66
2022/04/25 04:43:03;;;;;;;7.78;4.57;;;;;;;12.64;64.04;98780.91;5095511;28;20044;-65
2022/04/25 04:45:30;;;;;;;13.95;5.80;;;;;;;12.49;64.14;98766.97;5095546;28;20438;-65
2022/04/25 04:47:58;;;;;;;8.43;5.10;;;;;;;12.20;64.74;98761.94;5092853;28;20109;-70
2022/04/25 04:50:25;;;;;;;10.75;4.60;;;;;;;12.07;64.42;98775.16;5095432;28;20130;-69
2022/04/25 04:52:56;;;;;;;8.25;4.65;;;;;;;11.96;64.18;98785.22;5095024;28;20052;-68
2022/04/25 04:55:24;;;;;;;8.95;4.90;;;;;;;12.18;64.03;98781.00;5095072;28;20044;-69
2022/04/25 04:57:58;;;;;;;8.40;5.15;;;;;;;12.46;63.10;98790.84;5095351;28;20052;-64
2022/04/25 05:00:25;;;;;;;8.63;4.88;;;;;;;12.87;62.24;98789.38;5095639;28;20044;-72
2022/04/25 05:02:52;;;;;;;8.77;4.43;;;;;;;13.06;61.39;98789.44;5095308;28;20052;-72
2022/04/25 05:05:20;;;;;;;7.47;4.13;;;;;;;13.07;61.10;98785.47;5095183;28;20048;-72
2022/04/25 05:07:47;;;;;;;8.50;4.55;;;;;;;13.16;61.10;98793.59;5076650;28;20051;-63
2022/04/25 05:10:15;;;;;;;7.35;4.30;;;;;;;13.29;60.75;98787.50;5095133;28;20386;-63
2022/04/25 05:12:44;;;;;;;8.55;4.47;;;;;;;13.24;60.16;98793.41;5094937;28;20218;-64
2022/04/25 05:15:13;;;;;;;7.87;4.83;;;;;;;13.26;60.70;98802.19;5094992;28;20130;-64
2022/04/25 05:17:42;;;;;;;12.43;4.55;;;;;;;13.26;60.33;98807.00;5094952;28;20278;-65
2022/04/25 05:20:12;;;;;;;8.80;4.78;;;;;;;13.30;60.30;98813.44;5095117;28;20528;-64
2022/04/25 05:22:44;;;;;;;7.75;4.95;;;;;;;13.43;60.65;98815.72;5094937;28;20053;-63
2022/04/25 05:25:19;;;;;;;8.98;4.70;;;;;;;13.62;59.98;98800.94;5094299;28;20048;-64
2022/04/25 05:27:49;;;;;;;9.65;4.47;;;;;;;13.92;59.10;98818.66;5094234;28;20090;-64
2022/04/25 05:30:17;;;;;;;10.33;4.73;;;;;;;14.00;58.58;98814.78;5094595;28;20444;-63
2022/04/25 05:32:52;;;;;;;8.20;4.55;;;;;;;14.06;58.50;98814.13;5093959;28;20344;-72
2022/04/25 05:35:26;;;;;;;9.00;4.65;;;;;;;13.74;59.41;98815.50;5094325;28;20048;-72
2022/04/25 05:37:54;;;;;;;7.40;4.55;;;;;;;13.54;59.93;98824.31;5094479;28;20154;-72
2022/04/25 05:40:22;;;;;;;8.73;5.07;;;;;;;13.34;60.25;98814.31;5094269;28;20499;-73
2022/04/25 05:42:51;;;;;;;8.93;4.72;;;;;;;13.33;59.76;98807.13;5076469;28;20463;-73
2022/04/25 05:45:22;;;;;;;8.13;4.25;;;;;;;13.35;59.50;98813.16;5094801;28;20052;-72
2022/04/25 05:47:54;;;;;;;10.60;3.97;;;;;;;13.32;59.26;98825.06;5096915;28;20079;-71
2022/04/25 05:53:07;;;;;;;6.57;4.47;;;;;;;12.98;59.78;98820.31;5095872;28;20052;-70
2022/04/25 05:55:36;;;;;;;6.97;4.65;;;;;;;13.04;59.47;98816.09;5114536;28;20511;-70
2022/04/25 05:58:06;;;;;;;10.88;4.68;;;;;;;13.08;59.29;98831.75;5114480;28;20417;-70
2022/04/25 06:00:34;;;;;;;;;;;;;;;13.05;59.20;98826.88;5114553;28;20051;-70
2022/04/25 06:03:02;;;;;;;8.10;4.40;;;;;;;13.22;59.12;98832.06;5114338;28;20018;-70
2022/04/25 06:05:29;;;;;;;10.85;5.15;;;;;;;13.88;57.13;98820.56;5114340;28;20130;-70
2022/04/25 06:07:56;;;;;;;7.03;4.45;;;;;;;15.49;54.13;98823.09;5113941;28;20512;-72
2022/04/25 06:10:25;;;;;;;7.05;4.95;;;;;;;16.24;52.21;98820.69;5114135;28;20096;-74
2022/04/25 06:12:54;;;;;;;7.45;4.45;;;;;;;17.12;50.44;98826.16;5114175;28;20054;-74
2022/04/25 06:15:26;;;;;;;12.73;4.60;;;;;;;17.78;48.79;98814.41;5113882;28;20413;-72
2022/04/25 06:17:54;;;;;;;7.65;4.47;;;;;;;18.00;48.41;98811.22;5114114;28;20096;-72
2022/04/25 06:20:22;;;;;;;6.65;4.10;;;;;;;18.32;47.36;98811.25;5113675;28;20050;-72
2022/04/25 06:22:55;;;;;;;10.27;4.60;;;;;;;18.22;47.01;98812.06;5114216;28;20087;-72
2022/04/25 06:25:24;;;;;;;10.32;4.72;;;;;;;17.89;47.13;98804.78;5095898;28;20078;-72
2022/04/25 06:27:52;;;;;;;6.77;4.30;;;;;;;17.71;47.91;98808.75;5113801;28;20576;-72
2022/04/25 06:30:23;;;;;;;8.25;4.95;;;;;;;18.08;46.84;98795.97;5113894;28;20085;-73
2022/04/25 06:32:52;;;;;;;8.00;4.60;;;;;;;19.36;44.59;98797.47;5113816;28;20056;-72
2022/04/25 06:35:22;;;;;;;10.27;5.28;;;;;;;20.53;42.21;98787.06;5113752;28;20411;-73
2022/04/25 06:37:49;;;;;;;8.05;4.70;;;;;;;21.95;39.73;98777.38;5113655;28;20047;-73
2022/04/25 06:40:17;;;;;;;7.78;5.15;;;;;;;23.06;36.90;98776.72;5113702;28;20059;-72
2022/04/25 06:42:45;;;;;;;7.50;4.97;;;;;;;23.61;36.31;98772.41;5113657;28;20058;-71
2022/04/25 06:45:13;;;;;;;13.93;5.45;;;;;;;23.92;35.25;98773.75;5112462;28;20134;-72
2022/04/25 06:47:41;;;;;;;14.23;8.25;;;;;;;23.60;35.94;98768.78;5113031;28;20076;-72
2022/04/25 06:50:08;;;;;;;9.40;5.35;;;;;;;24.09;34.00;98766.88;5113173;28;20053;-72
2022/04/25 06:52:36;;;;;;;10.05;4.60;;;;;;;23.51;34.95;98764.91;5113316;28;20083;-72
2022/04/25 06:55:04;;;;;;;9.50;4.85;;;;;;;23.56;34.96;98756.66;5095654;28;20051;-73
2022/04/25 06:57:33;;;;;;;7.20;4.87;;;;;;;23.42;34.45;98763.44;5113199;28;20104;-74
2022/04/25 07:00:01;;;;;;;14.27;5.22;;;;;;;22.89;35.17;98769.34;5113391;28;20071;-72
2022/04/25 07:02:48;;;;;;;6.03;4.32;;;;;;;23.58;33.93;98762.72;5112947;28;20090;-71
2022/04/25 07:05:16;;;;;;;7.57;4.38;;;;;;;24.13;32.99;98761.91;5112913;28;20043;-71
2022/04/25 07:07:43;;;;;;;10.27;4.88;;;;;;;24.56;32.05;98763.28;5113233;28;20100;-73
2022/04/25 07:10:10;;;;;;;8.98;4.55;;;;;;;24.92;31.88;98778.19;5112891;28;20047;-73
2022/04/25 07:12:37;;;;;;;8.88;5.85;;;;;;;24.87;31.83;98777.94;5113057;28;20079;-73
2022/04/25 07:15:04;;;;;;;8.55;5.10;;;;;;;26.59;29.44;98761.38;5113404;28;20062;-65
2022/04/25 07:17:32;;;;;;;6.38;4.35;;;;;;;28.42;26.63;98766.81;5113095;28;20116;-64
2022/04/25 07:19:59;;;;;;;9.65;4.50;;;;;;;30.26;24.31;98760.22;5113412;28;20508;-65
2022/04/25 07:30:45;;;;;;;6.32;3.90;;;;;;;34.90;19.10;98763.56;5112918;28;20049;-65
2022/04/25 07:33:12;;;;;;;6.18;4.30;;;;;;;36.16;17.80;98766.16;5112819;28;20130;-64
2022/04/25 07:35:39;;;;;;;9.30;4.15;;;;;;;35.88;17.84;98761.66;5113146;28;20559;-64
2022/04/25 07:38:07;;;;;;;16.80;11.80;;;;;;;35.93;17.42;98764.56;5112827;28;20388;-65
2022/04/25 07:40:36;;;;;;;12.82;4.78;;;;;;;34.63;18.69;98767.00;5113325;28;20502;-65
2022/04/25 07:43:03;;;;;;;11.32;4.55;;;;;;;33.77;19.62;98758.56;5112903;28;20589;-65
2022/04/25 07:45:30;;;;;;;4.80;3.50;;;;;;;35.06;18.24;98742.63;5113204;28;20054;-64
2022/04/25 07:47:57;;;;;;;6.57;3.97;;;;;;;35.03;18.53;98734.97;5112391;28;20056;-65
2022/04/25 07:50:25;;;;;;;5.80;4.13;;;;;;;36.36;16.91;98734.09;5112722;28;20082;-65
2022/04/25 07:52:52;;;;;;;6.35;3.70;;;;;;;35.87;16.72;98734.78;5112642;28;20130;-65
2022/04/25 07:55:19;;;;;;;8.23;3.63;;;;;;;36.24;16.31;98749.06;5094824;28;20051;-65
2022/04/25 07:57:49;;;;;;;5.55;3.85;;;;;;;36.79;15.97;98754.09;5116106;28;20050;-64
2022/04/25 08:00:16;;;;;;;8.48;4.07;;;;;;;37.14;15.67;98742.63;5117070;28;20047;-65
2022/04/25 08:02:43;;;;;;;4.45;3.58;;;;;;;36.74;15.74;98736.16;5116697;28;20422;-66
2022/04/25 08:05:10;;;;;;;4.43;3.15;;;;;;;37.85;14.90;98736.53;5116585;28;20053;-65
2022/04/25 08:07:37;;;;;;;7.55;3.85;;;;;;;38.95;13.64;98734.06;5116190;28;20083;-64
2022/04/25 08:10:05;;;;;;;13.07;3.70;;;;;;;40.12;12.99;98728.31;5116742;28;20051;-66
2022/04/25 08:18:08;;;;;;;8.75;3.83;;;;;;;40.21;12.81;98724.97;5116101;28;20047;-64
2022/04/25 08:20:36;;;;;;;5.55;3.22;;;;;;;40.12;12.73;98716.63;5116200;28;20047;-65
2022/04/25 08:23:07;;;;;;;7.88;4.35;;;;;;;39.63;13.16;98718.94;5116238;28;20058;-64
2022/04/25 08:25:34;;;;;;;4.53;3.35;;;;;;;40.34;12.31;98707.56;5116282;28;20047;-64
2022/04/25 08:28:01;;;;;;;3.63;3.20;;;;;;;39.90;12.54;98706.91;5115989;28;20079;-65
2022/04/25 08:30:31;;;;;;;4.90;3.63;;;;;;;40.65;12.20;98703.81;5116489;28;20047;-65
2022/04/25 08:32:59;;;;;;;6.90;3.50;;;;;;;40.87;11.90;98695.44;5116088;28;20133;-63
2022/04/25 08:35:27;;;;;;;8.90;3.63;;;;;;;41.96;11.29;98693.66;5116105;28;20047;-64
2022/04/25 08:37:54;;;;;;;7.18;4.60;;;;;;;42.32;11.19;98699.69;5115897;28;20059;-63
2022/04/25 08:40:22;;;;;;;6.85;4.00;;;;;;;42.50;10.50;98693.63;5115892;28;20048;-64
2022/04/25 08:42:49;;;;;;;10.50;3.78;;;;;;;41.11;11.26;98682.81;5115900;28;20460;-65
2022/04/25 08:45:16;;;;;;;5.03;3.25;;;;;;;40.48;11.67;98683.72;5115693;28;20051;-64
2022/04/25 08:47:53;;;;;;;5.55;3.60;;;;;;;41.25;11.32;98675.59;5115427;28;20137;-66
2022/04/25 08:50:21;;;;;;;4.90;3.28;;;;;;;42.05;11.07;98677.78;5115968;28;20105;-65
2022/04/25 08:52:49;;;;;;;6.82;3.33;;;;;;;41.83;10.91;98679.09;5115893;28;20047;-65
2022/04/25 08:55:16;;;;;;;7.00;3.83;;;;;;;40.32;11.68;98672.34;5115848;28;20052;-64
2022/04/25 08:57:45;;;;;;;8.33;3.97;;;;;;;40.05;11.83;98673.59;5097527;28;20424;-64
2022/04/25 09:00:13;;;;;;;4.57;3.25;;;;;;;40.07;11.49;98659.25;5115570;28;20040;-65
2022/04/25 09:02:40;;;;;;;;;;;;;;;39.86;12.09;98656.94;5116073;28;20047;-64
2022/04/25 09:05:12;;;;;;;4.77;3.20;;;;;;;36.93;13.84;98660.19;5115255;28;19924;-65
2022/04/25 09:07:41;;;;;;;7.38;3.38;;;;;;;36.28;14.23;98657.69;5114130;28;20522;-65
2022/04/25 09:10:10;;;;;;;4.35;3.13;;;;;;;36.30;14.15;98648.47;5115351;28;20060;-65
2022/04/25 09:12:37;;;;;;;4.32;2.97;;;;;;;36.89;13.43;98648.06;5115310;28;20411;-66
2022/04/25 09:15:06;;;;;;;4.38;3.13;;;;;;;37.41;13.12;98646.78;5115299;28;20048;-66
2022/04/25 09:17:54;;;;;;;8.23;4.97;;;;;;;37.74;13.09;98660.34;5115003;28;20059;-66
2022/04/25 09:20:23;;;;;;;5.80;3.45;;;;;;;38.47;12.13;98643.84;5114787;28;20055;-66
2022/04/25 09:22:50;;;;;;;5.47;3.20;;;;;;;38.42;11.91;98648.38;5115052;28;20047;-66
2022/04/25 09:25:18;;;;;;;5.80;2.95;;;;;;;37.62;12.99;98655.91;5115000;28;20093;-67
2022/04/25 09:28:14;;;;;;;4.35;3.40;;;;;;;36.20;13.80;98645.03;5096928;28;20141;-66
2022/04/25 09:31:00;;;;;;;4.65;3.25;;;;;;;34.38;15.58;98647.38;5114969;28;20055;-69
2022/04/25 09:33:28;;;;;;;5.38;3.00;;;;;;;33.79;15.75;98642.63;5114818;28;20048;-67
2022/04/25 09:35:56;;;;;;;4.00;2.90;;;;;;;33.22;15.90;98649.13;5080320;28;20063;-67
2022/04/25 09:38:32;;;;;;;6.80;2.95;;;;;;;30.90;18.13;98627.28;5114763;28;20418;-66
2022/04/25 09:41:00;;;;;;;6.95;3.05;;;;;;;29.31;19.86;98636.47;5114581;28;20071;-67
2022/04/25 09:43:34;;;;;;;4.60;3.27;;;;;;;28.28;20.76;98638.66;5114637;28;20050;-66
2022/04/25 09:46:23;;;;;;;3.83;3.25;;;;;;;27.16;21.80;98643.13;5114733;28;20093;-66
2022/04/25 09:49:01;;;;;;;4.97;3.28;;;;;;;25.80;23.69;98627.53;5093914;28;20110;-66
2022/04/25 09:51:29;;;;;;;3.92;3.25;;;;;;;25.08;24.25;98624.44;5094465;28;20079;-69
2022/04/25 09:53:57;;;;;;;8.85;3.95;;;;;;;24.58;24.58;98632.81;5094222;28;20059;-65
2022/04/25 09:56:30;;;;;;;4.22;3.05;;;;;;;24.15;25.34;98623.00;5094389;28;20058;-66
2022/04/25 09:59:03;;;;;;;5.93;3.10;;;;;;;23.97;25.73;98622.66;5111445;28;20104;-66
2022/04/25 10:01:33;;;;;;;4.22;3.13;;;;;;;23.87;26.10;98630.19;5114700;28;20062;-66
2022/04/25 10:04:01;;;;;;;7.82;3.80;;;;;;;23.54;26.40;98639.91;5114380;28;20131;-67
2022/04/25 10:06:34;;;;;;;8.05;3.60;;;;;;;23.11;26.88;98650.56;5114133;28;20044;-67
2022/04/25 10:09:05;;;;;;;5.15;3.42;;;;;;;22.57;27.59;98633.03;5095891;28;20086;-66
2022/04/25 10:11:35;;;;;;;4.72;3.42;;;;;;;22.44;27.73;98629.19;5114189;28;20158;-66
2022/04/25 10:14:03;;;;;;;5.20;3.22;;;;;;;22.13;28.14;98630.59;5114104;28;20052;-66
2022/04/25 10:16:32;;;;;;;5.25;3.25;;;;;;;21.91;28.47;98629.38;5114379;28;20483;-66
2022/04/25 10:18:59;;;;;;;4.28;2.90;;;;;;;21.80;28.76;98623.06;5113536;28;20130;-65
2022/04/25 10:21:29;;;;;;;5.50;3.50;;;;;;;21.66;29.24;98623.25;5095694;28;20040;-67
2022/04/25 10:23:57;;;;;;;6.68;3.42;;;;;;;21.53;29.61;98637.19;5113809;28;20044;-67
2022/04/25 10:26:29;;;;;;;5.97;3.40;;;;;;;21.24;29.67;98636.03;5114046;28;20155;-66
2022/04/25 10:29:10;;;;;;;4.55;2.90;;;;;;;21.15;29.81;98623.63;5113836;28;20510;-65
2022/04/25 10:31:41;;;;;;;5.28;3.10;;;;;;;20.99;30.15;98631.94;5113858;28;20058;-69
2022/04/25 10:34:10;;;;;;;4.85;3.08;;;;;;;20.96;30.20;98646.94;5095247;28;20087;-70
2022/04/25 10:36:40;;;;;;;11.32;3.45;;;;;;;20.99;29.96;98637.59;5125651;27;20527;-69
2022/04/25 10:39:24;;;;;;;7.47;3.50;;;;;;;20.96;29.96;98624.31;5115606;27;20051;-70
2022/04/25 10:44:42;;;;;;;4.45;3.00;;;;;;;20.45;30.86;98627.28;5134198;27;20125;-70
2022/04/25 10:47:20;;;;;;;7.28;3.67;;;;;;;20.05;31.56;98611.97;5134312;27;20058;-70
2022/04/25 10:50:08;;;;;;;4.07;2.92;;;;;;;19.72;31.68;98632.41;5133583;27;20053;-70
2022/04/25 10:52:51;;;;;;;5.25;3.53;;;;;;;19.59;31.71;98620.81;5134028;27;20051;-70
2022/04/25 10:55:30;;;;;;;6.65;3.60;;;;;;;19.72;32.07;98621.91;5133816;27;20075;-70
2022/04/25 10:58:03;;;;;;;4.72;3.17;;;;;;;19.68;31.99;98609.84;5125256;27;20077;-70
2022/04/25 11:00:36;;;;;;;5.13;3.05;;;;;;;19.58;32.21;98613.56;5113441;28;20043;-75
2022/04/25 11:03:06;;;;;;;4.65;3.45;;;;;;;19.84;31.74;98604.47;5113387;28;20043;-67
2022/04/25 11:05:35;;;;;;;6.03;3.70;;;;;;;20.01;31.42;98610.38;5113415;28;20143;-66
2022/04/25 11:08:24;;;;;;;6.63;3.25;;;;;;;19.98;31.73;98607.16;5094799;28;20100;-66
2022/04/25 11:10:57;;;;;;;4.65;3.50;;;;;;;19.80;31.90;98612.19;5113213;28;20092;-68
2022/04/25 11:13:26;;;;;;;4.35;3.08;;;;;;;19.65;32.44;98619.16;5113283;28;20082;-67
2022/04/25 11:15:56;;;;;;;6.90;3.20;;;;;;;19.61;32.37;98600.66;5113492;28;20445;-68
2022/04/25 11:18:38;;;;;;;8.18;2.92;;;;;;;19.61;32.46;98607.09;5113056;28;20466;-65
2022/04/25 11:21:13;;;;;;;4.85;3.58;;;;;;;19.73;32.05;98609.44;5112927;28;20088;-67
2022/04/25 11:23:45;;;;;;;3.97;2.75;;;;;;;19.54;31.81;98612.00;5112984;28;20060;-66
2022/04/25 11:26:21;;;;;;;5.38;2.92;;;;;;;19.42;31.95;98615.31;5113809;28;20100;-67
2022/04/25 11:28:54;;;;;;;5.88;3.15;;;;;;;19.25;32.14;98611.38;5113102;28;20051;-67
2022/04/25 11:31:23;;;;;;;5.05;2.75;;;;;;;19.11;32.15;98607.81;5114203;28;20043;-67
2022/04/25 11:33:52;;;;;;;7.30;2.83;;;;;;;19.04;32.47;98600.19;5099097;28;20055;-66
2022/04/25 11:36:21;;;;;;;4.47;2.80;;;;;;;19.29;31.95;98591.63;5117328;28;20593;-67
2022/04/25 11:41:37;;;;;;;4.40;2.80;;;;;;;19.67;31.44;98591.34;5117421;28;20048;-67
2022/04/25 11:44:05;;;;;;;7.55;3.47;;;;;;;19.64;31.52;98605.47;5115799;28;20048;-67
2022/04/25 11:46:35;;;;;;;4.10;2.85;;;;;;;19.64;31.34;98592.16;5113792;28;20039;-64
2022/04/25 11:49:04;;;;;;;4.13;2.85;;;;;;;19.67;31.44;98582.88;5114465;28;21013;-64
2022/04/25 11:51:32;;;;;;;3.92;2.95;;;;;;;19.46;31.71;98580.22;5116056;28;21744;-70
2022/04/25 11:54:04;;;;;;;6.15;2.72;;;;;;;19.52;31.85;98583.38;5116393;28;20048;-69
2022/04/25 11:56:34;;;;;;;3.80;2.85;;;;;;;19.77;31.57;98598.09;5116341;28;20055;-69
2022/04/25 11:59:21;;;;;;;4.85;2.80;;;;;;;19.62;31.69;98596.59;5097691;28;20044;-66
2022/04/25 12:01:50;;;;;;;5.32;2.97;;;;;;;19.69;31.67;98590.91;5108793;28;20473;-64
2022/04/25 12:04:22;;;;;;;4.28;3.35;;;;;;;19.67;31.58;98599.00;5114749;28;20054;-64
2022/04/25 12:07:00;;;;;;;3.97;2.83;;;;;;;19.55;31.74;98597.47;5115175;28;20444;-67
2022/04/25 12:18:17;;;;;;;5.88;3.00;;;;;;;19.70;31.41;98593.31;5116221;28;20142;-66
2022/04/25 12:20:47;;;;;;;4.00;2.80;;;;;;;19.62;31.54;98591.78;5115499;28;20173;-68